Time;durP1;ratioP1;P1;durP2;ratioP2;P2;SDS_P1;SDS_P2;PMS_P1;PMS_P2;Temp;Humidity;BMP_temperature;BMP_pressure;BME280_temperature;BME280_humidity;BME280_pressure;Samples;Min_cycle;Max_cycle;Signal;HPM_P1;HPM_P2
2022/05/19 00:01:06;;;;;;;31.45;21.83;;;;;;;18.75;74.34;101653.63;4988755;28;20423;-73
2022/05/19 00:03:36;;;;;;;31.48;21.38;;;;;;;18.72;74.15;101648.38;4977373;28;20500;-74
2022/05/19 00:06:03;;;;;;;41.28;23.17;;;;;;;18.67;75.29;101642.41;4978353;28;20516;-74
2022/05/19 00:08:29;;;;;;;33.30;22.48;;;;;;;18.57;75.21;101636.88;4982871;28;20117;-69
2022/05/19 00:10:57;;;;;;;30.67;21.10;;;;;;;18.57;75.31;101634.13;4973404;28;20066;-69
2022/05/19 00:13:24;;;;;;;34.17;21.48;;;;;;;18.54;75.12;101635.25;4980675;28;20038;-75
2022/05/19 00:15:50;;;;;;;31.67;22.05;;;;;;;18.54;75.73;101631.66;4972165;28;20051;-75
2022/05/19 00:18:15;;;;;;;33.30;22.00;;;;;;;18.53;75.95;101633.53;4984754;28;20030;-74
2022/05/19 00:20:41;;;;;;;41.65;21.90;;;;;;;18.52;75.64;101625.41;4980242;28;20047;-69
2022/05/19 00:23:06;;;;;;;32.13;21.70;;;;;;;18.54;74.93;101615.97;4988910;28;20458;-69
2022/05/19 00:25:32;;;;;;;39.13;22.77;;;;;;;18.49;75.84;101615.53;4980542;28;20023;-70
2022/05/19 00:27:57;;;;;;;39.75;23.70;;;;;;;18.42;76.25;101616.25;4968562;28;20026;-74
2022/05/19 00:30:23;;;;;;;38.03;21.75;;;;;;;18.42;75.16;101617.16;4974614;28;20102;-75
2022/05/19 00:32:48;;;;;;;30.75;21.48;;;;;;;18.45;75.11;101614.09;4974227;28;20077;-69
2022/05/19 00:35:14;;;;;;;32.83;23.33;;;;;;;18.44;75.27;101605.97;4976471;28;20034;-72
2022/05/19 00:37:40;;;;;;;32.55;21.95;;;;;;;18.42;75.48;101607.97;4987789;28;20026;-69
2022/05/19 00:40:06;;;;;;;33.05;22.27;;;;;;;18.40;75.94;101602.63;4976811;28;20086;-74
2022/05/19 00:42:44;;;;;;;35.88;22.35;;;;;;;18.34;76.37;101609.59;4981574;28;20065;-74
2022/05/19 00:45:22;;;;;;;36.05;23.45;;;;;;;18.31;75.01;101601.59;4984308;28;20069;-74
2022/05/19 00:47:54;;;;;;;31.75;21.70;;;;;;;18.31;75.22;101600.72;4982276;28;20121;-69
2022/05/19 00:50:31;;;;;;;35.25;22.25;;;;;;;18.32;75.11;101605.22;4983964;28;20031;-74
2022/05/19 00:53:35;;;;;;;34.47;21.15;;;;;;;18.35;73.88;101596.69;4989322;28;20041;-74
2022/05/19 00:56:08;;;;;;;30.85;23.17;;;;;;;18.29;76.82;101594.50;4991966;28;20050;-69
2022/05/19 00:58:39;;;;;;;34.55;22.13;;;;;;;18.23;75.42;101590.44;4989814;28;20042;-70
2022/05/19 01:01:06;;;;;;;32.92;22.05;;;;;;;18.21;76.02;101586.06;4986320;28;20049;-74
2022/05/19 01:03:41;;;;;;;36.25;22.55;;;;;;;18.21;75.98;101586.06;4985882;28;20034;-70
2022/05/19 01:06:12;;;;;;;36.80;22.23;;;;;;;18.16;75.64;101575.47;5018518;28;20053;-69
2022/05/19 01:08:42;;;;;;;38.17;24.30;;;;;;;18.08;77.55;101569.81;4973933;28;20406;-70
2022/05/19 01:11:09;;;;;;;31.92;22.08;;;;;;;18.04;77.21;101568.34;5007344;28;20367;-75
2022/05/19 01:13:35;;;;;;;33.10;22.27;;;;;;;18.01;75.95;101566.78;4979940;28;20049;-69
2022/05/19 01:16:04;;;;;;;32.45;21.75;;;;;;;18.01;75.54;101569.53;4984683;28;20478;-69
2022/05/19 01:18:30;;;;;;;31.95;21.02;;;;;;;17.99;75.97;101571.53;4974082;28;20045;-69
2022/05/19 01:20:56;;;;;;;34.20;22.50;;;;;;;17.98;75.87;101563.41;4977276;28;20451;-75
2022/05/19 01:23:33;;;;;;;34.30;22.25;;;;;;;17.91;76.12;101554.88;4988455;28;20038;-70
2022/05/19 01:26:38;;;;;;;30.98;22.17;;;;;;;17.88;75.44;101555.13;4994174;28;20034;-75
2022/05/19 01:29:03;;;;;;;30.00;21.30;;;;;;;17.82;76.30;101548.31;4979869;28;20038;-75
2022/05/19 01:31:30;;;;;;;34.90;23.10;;;;;;;17.81;76.43;101542.94;4993774;28;20035;-74
2022/05/19 01:33:56;;;;;;;32.90;22.27;;;;;;;17.78;76.38;101546.84;4986428;28;20497;-70
2022/05/19 01:36:22;;;;;;;35.03;23.27;;;;;;;17.77;76.71;101531.38;4979601;28;20157;-73
2022/05/19 01:38:56;;;;;;;32.67;24.02;;;;;;;17.72;76.91;101525.38;4988858;28;20125;-70
2022/05/19 01:41:57;;;;;;;34.75;22.35;;;;;;;17.69;75.79;101522.03;4993815;28;20076;-70
2022/05/19 01:44:54;;;;;;;34.30;21.80;;;;;;;17.66;75.39;101519.56;4996869;28;20121;-75
2022/05/19 01:47:44;;;;;;;31.70;21.15;;;;;;;17.65;75.16;101520.56;4986599;28;20318;-71
2022/05/19 01:50:21;;;;;;;34.13;22.10;;;;;;;17.59;76.22;101533.00;4987903;28;20368;-74
2022/05/19 01:53:13;;;;;;;32.53;22.63;;;;;;;17.54;75.57;101527.94;4978302;28;20065;-74
2022/05/19 01:56:02;;;;;;;29.67;22.27;;;;;;;17.51;76.24;101525.44;4987722;28;20057;-70
2022/05/19 01:58:45;;;;;;;35.65;23.38;;;;;;;17.47;76.57;101518.47;4989240;28;20031;-70
2022/05/19 02:01:13;;;;;;;39.35;23.60;;;;;;;17.45;78.17;101523.25;4993781;28;20034;-70
2022/05/19 02:04:16;;;;;;;36.03;23.73;;;;;;;17.48;76.45;101516.59;4991741;28;20099;-69
2022/05/19 02:06:48;;;;;;;35.78;22.23;;;;;;;17.43;76.93;101519.75;4975007;28;20046;-69
2022/05/19 02:09:24;;;;;;;32.58;23.42;;;;;;;17.43;76.77;101518.91;4973702;28;20042;-72
2022/05/19 02:11:54;;;;;;;31.27;22.35;;;;;;;17.38;77.68;101513.81;4973351;28;20038;-72
2022/05/19 02:14:27;;;;;;;35.47;23.20;;;;;;;17.39;76.97;101514.69;4978712;28;20289;-73
2022/05/19 02:16:54;;;;;;;39.78;24.70;;;;;;;17.37;77.76;101519.47;4972190;28;20042;-70
2022/05/19 02:19:24;;;;;;;33.50;22.42;;;;;;;17.37;77.49;101519.47;4976976;28;20022;-74
2022/05/19 02:21:51;;;;;;;38.97;25.10;;;;;;;17.39;77.94;101522.94;4988357;28;20405;-74
2022/05/19 02:24:20;;;;;;;34.40;23.17;;;;;;;17.37;77.64;101527.72;4988464;28;20030;-69
2022/05/19 02:26:45;;;;;;;38.15;24.02;;;;;;;17.36;78.82;101520.47;4991865;28;20039;-75
2022/05/19 02:29:17;;;;;;;37.03;25.98;;;;;;;17.32;78.49;101522.63;4970538;28;20058;-70
2022/05/19 02:31:46;;;;;;;38.27;24.27;;;;;;;17.33;77.72;101530.72;4989066;28;20129;-69
2022/05/19 02:34:12;;;;;;;35.97;23.27;;;;;;;17.36;77.70;101523.22;4983750;28;20023;-74
2022/05/19 02:36:38;;;;;;;36.63;24.58;;;;;;;17.33;79.80;101521.59;4987421;28;20034;-71
2022/05/19 02:39:04;;;;;;;39.47;24.95;;;;;;;17.30;78.93;101520.03;4990081;28;20041;-74
2022/05/19 02:41:30;;;;;;;30.80;22.90;;;;;;;17.30;78.88;101524.66;4975187;28;20038;-74
2022/05/19 02:43:55;;;;;;;38.03;23.60;;;;;;;17.33;78.37;101529.88;4974478;28;20065;-74
2022/05/19 02:46:20;;;;;;;38.85;24.25;;;;;;;17.36;78.61;101531.47;4986585;28;20342;-76
2022/05/19 02:48:46;;;;;;;37.05;25.25;;;;;;;17.38;78.38;101522.06;4982357;28;20513;-75
2022/05/19 02:51:11;;;;;;;35.83;24.58;;;;;;;17.42;78.39;101537.28;4985501;28;20130;-74
2022/05/19 02:53:36;;;;;;;37.35;25.55;;;;;;;17.44;78.56;101539.88;4982434;28;20067;-75
2022/05/19 02:56:02;;;;;;;38.45;24.02;;;;;;;17.51;77.96;101550.22;4986122;28;20369;-70
2022/05/19 02:58:28;;;;;;;39.20;25.77;;;;;;;17.53;79.11;101544.56;4983474;28;20120;-70
2022/05/19 03:00:53;;;;;;;38.55;24.38;;;;;;;17.55;78.78;101557.19;4984188;28;20102;-71
2022/05/19 03:03:19;;;;;;;34.83;25.23;;;;;;;17.59;79.12;101605.44;4986410;28;20441;-70
2022/05/19 03:05:44;;;;;;;36.28;25.67;;;;;;;17.67;81.43;101670.75;4983237;28;20421;-71
2022/05/19 03:08:11;;;;;;;40.00;24.85;;;;;;;17.77;80.91;101654.34;4987428;28;20038;-74
2022/05/19 03:10:41;;;;;;;32.00;23.33;;;;;;;17.86;79.73;101642.53;4982680;28;20347;-76
2022/05/19 03:13:14;;;;;;;35.90;21.25;;;;;;;18.01;79.13;101687.94;4968261;28;20074;-70
2022/05/19 03:15:39;;;;;;;33.95;23.05;;;;;;;18.17;78.57;101698.41;4979667;28;20022;-69
2022/05/19 03:18:05;;;;;;;32.33;22.70;;;;;;;18.32;77.64;101690.63;4979296;28;20121;-74
2022/05/19 03:20:30;;;;;;;29.77;21.42;;;;;;;18.37;77.47;101669.03;4976620;28;20141;-74
2022/05/19 03:22:55;;;;;;;27.00;19.77;;;;;;;18.42;75.90;101687.88;4969652;28;20615;-74
2022/05/19 03:25:21;;;;;;;26.08;20.75;;;;;;;18.47;76.99;101704.91;4968562;28;20042;-75
2022/05/19 03:27:46;;;;;;;27.60;21.73;;;;;;;18.49;77.62;101686.31;4970097;28;20066;-71
2022/05/19 03:30:15;;;;;;;26.67;20.60;;;;;;;18.59;76.16;101684.44;4984609;28;20437;-69
2022/05/19 03:32:41;;;;;;;29.20;21.33;;;;;;;18.61;76.72;101686.06;4974108;28;20442;-69
2022/05/19 03:35:07;;;;;;;28.08;20.42;;;;;;;18.63;76.56;101685.91;4979050;28;20038;-75
2022/05/19 03:37:33;;;;;;;28.50;20.00;;;;;;;18.64;75.70;101681.25;4972643;28;20038;-75
2022/05/19 03:39:58;;;;;;;31.25;20.23;;;;;;;18.66;76.58;101684.75;4974656;28;20435;-69
2022/05/19 03:42:23;;;;;;;29.25;20.20;;;;;;;18.68;75.67;101680.84;4985103;28;20060;-73
2022/05/19 03:44:49;;;;;;;27.27;19.80;;;;;;;18.69;75.22;101688.13;4970157;28;20488;-74
2022/05/19 03:47:14;;;;;;;32.50;20.10;;;;;;;18.67;77.17;101684.63;4968378;28;20027;-70
2022/05/19 03:49:39;;;;;;;24.02;18.73;;;;;;;18.63;75.00;101696.06;4999789;28;20453;-70
2022/05/19 03:52:05;;;;;;;28.27;21.77;;;;;;;18.63;76.86;101679.53;4985832;28;20386;-74
2022/05/19 03:54:30;;;;;;;28.67;21.25;;;;;;;18.60;77.48;101677.91;4967210;28;20482;-69
2022/05/19 03:56:56;;;;;;;34.13;20.00;;;;;;;18.55;78.07;101683.84;4968450;28;20027;-74
2022/05/19 03:59:21;;;;;;;33.63;21.98;;;;;;;18.50;78.63;101679.78;4974117;28;20149;-75
2022/05/19 04:01:47;;;;;;;28.67;18.17;;;;;;;18.49;76.55;101702.84;4967748;28;20091;-69
2022/05/19 04:04:12;;;;;;;30.35;18.80;;;;;;;18.49;77.34;101716.63;4972673;28;20031;-70
2022/05/19 04:06:41;;;;;;;33.00;20.55;;;;;;;18.48;78.27;101702.00;4981812;28;20035;-74
2022/05/19 04:09:06;;;;;;;30.73;19.30;;;;;;;18.48;77.61;101710.25;4974924;28;20126;-69
2022/05/19 04:11:32;;;;;;;27.80;19.95;;;;;;;18.48;77.45;101712.16;4984405;28;20037;-74
2022/05/19 04:13:58;;;;;;;28.33;18.08;;;;;;;18.48;77.08;101703.88;4954837;28;20049;-69
2022/05/19 04:16:23;;;;;;;30.23;17.98;;;;;;;18.48;77.95;101706.63;4984377;28;20041;-73
2022/05/19 04:18:49;;;;;;;25.55;19.23;;;;;;;18.48;77.26;101704.75;4986635;28;20046;-74
2022/05/19 04:21:14;;;;;;;30.77;19.88;;;;;;;18.45;77.85;101706.91;4973947;28;20031;-74
2022/05/19 04:23:40;;;;;;;31.05;20.60;;;;;;;18.46;77.48;101715.03;4987132;28;20480;-74
2022/05/19 04:26:06;;;;;;;33.63;21.25;;;;;;;18.40;79.16;101718.34;4988571;28;20088;-69
2022/05/19 04:28:32;;;;;;;34.08;20.80;;;;;;;18.43;77.32;101708.94;4973141;28;20046;-68
2022/05/19 04:30:58;;;;;;;30.58;20.30;;;;;;;18.45;77.29;101716.03;4977069;28;20034;-73
2022/05/19 04:33:23;;;;;;;32.45;19.70;;;;;;;18.49;77.33;101705.63;4984918;28;20029;-69
2022/05/19 04:35:48;;;;;;;24.67;19.65;;;;;;;18.48;79.00;101698.38;4977463;28;20037;-69
2022/05/19 04:38:16;;;;;;;23.58;16.95;;;;;;;18.52;77.44;101708.09;4987749;28;20126;-74
2022/05/19 04:40:49;;;;;;;28.85;18.98;;;;;;;18.53;79.14;101701.56;4986014;28;20414;-69
2022/05/19 04:43:21;;;;;;;32.10;22.75;;;;;;;18.44;80.29;101675.72;4969468;28;20039;-69
2022/05/19 04:45:48;;;;;;;65.15;33.75;;;;;;;18.50;78.44;101694.44;4978889;28;20039;-74
2022/05/19 04:48:13;;;;;;;36.15;20.38;;;;;;;18.54;77.30;101698.66;4988493;28;20494;-72
2022/05/19 04:50:39;;;;;;;28.83;20.73;;;;;;;18.59;78.82;101698.22;4984970;28;20035;-74
2022/05/19 04:53:04;;;;;;;33.10;20.52;;;;;;;18.56;78.98;101695.78;4987843;28;20113;-74
2022/05/19 04:55:29;;;;;;;24.60;18.80;;;;;;;18.63;79.24;101693.31;4990244;28;20050;-74
2022/05/19 04:57:55;;;;;;;31.10;21.33;;;;;;;18.55;80.74;101671.97;4984808;28;20035;-75
2022/05/19 05:00:21;;;;;;;29.77;20.50;;;;;;;18.51;79.32;101685.19;4983578;28;20042;-69
2022/05/19 05:02:46;;;;;;;29.98;18.65;;;;;;;18.53;78.65;101690.53;4987355;28;20035;-69
2022/05/19 05:05:12;;;;;;;25.70;18.65;;;;;;;18.57;79.33;101686.50;4984388;28;20085;-69
2022/05/19 05:07:38;;;;;;;25.70;17.63;;;;;;;18.63;78.12;101696.94;4970878;28;20038;-74
2022/05/19 05:10:04;;;;;;;25.48;19.05;;;;;;;18.66;79.57;101699.41;4970700;28;20117;-70
2022/05/19 05:12:29;;;;;;;24.05;17.55;;;;;;;18.69;77.94;101692.75;4972779;28;20564;-74
2022/05/19 05:14:54;;;;;;;26.73;17.77;;;;;;;18.69;79.28;101685.34;4984852;28;20030;-69
2022/05/19 05:17:21;;;;;;;25.52;16.23;;;;;;;18.69;79.27;101674.34;4970594;28;20536;-74
2022/05/19 05:19:47;;;;;;;24.67;17.02;;;;;;;18.63;80.24;101665.75;4970322;28;20031;-69
2022/05/19 05:22:13;;;;;;;23.40;16.42;;;;;;;18.61;78.43;101676.94;4970851;28;20089;-73
2022/05/19 05:24:39;;;;;;;24.80;15.57;;;;;;;18.57;81.09;101662.56;4971169;28;20506;-72
2022/05/19 05:27:05;;;;;;;27.40;16.50;;;;;;;18.47;82.30;101647.91;4969483;28;20515;-68
2022/05/19 05:29:34;;;;;;;27.80;17.13;;;;;;;18.35;83.25;101632.50;4980110;28;20035;-70
2022/05/19 05:31:59;;;;;;;24.33;13.90;;;;;;;18.28;81.77;101604.66;4988351;28;20026;-70
2022/05/19 05:34:25;;;;;;;19.35;14.35;;;;;;;18.24;82.29;101605.94;4982414;28;20534;-72
2022/05/19 05:36:51;;;;;;;25.65;15.75;;;;;;;18.25;82.50;101604.94;4967012;28;20045;-73
2022/05/19 05:39:16;;;;;;;26.02;17.25;;;;;;;18.26;83.19;101606.66;4985494;28;20113;-71
2022/05/19 05:41:42;;;;;;;28.35;17.50;;;;;;;18.22;83.80;101596.94;4987671;28;20076;-73
2022/05/19 05:44:08;;;;;;;22.88;15.85;;;;;;;18.22;84.17;101558.38;4985426;28;20549;-74
2022/05/19 05:46:33;;;;;;;24.67;17.52;;;;;;;18.20;84.84;101556.78;4989657;28;20104;-70
2022/05/19 05:48:59;;;;;;;24.92;15.60;;;;;;;18.22;83.91;101549.25;4986992;28;20038;-73
2022/05/19 05:51:25;;;;;;;19.08;13.05;;;;;;;18.22;83.96;101563.03;4985782;28;20464;-74
2022/05/19 05:53:51;;;;;;;16.00;12.60;;;;;;;18.27;82.91;101574.47;4985742;28;20079;-74
2022/05/19 05:56:19;;;;;;;20.83;14.05;;;;;;;18.33;84.41;101590.44;4987048;28;20059;-69
2022/05/19 05:58:45;;;;;;;17.08;12.68;;;;;;;18.32;83.44;101578.53;4983612;28;20041;-68
2022/05/19 06:01:14;;;;;;;18.90;12.52;;;;;;;18.29;84.45;101576.09;4990032;28;20064;-70
2022/05/19 06:03:40;;;;;;;14.90;12.70;;;;;;;18.31;83.24;101576.81;4978749;28;20085;-70
2022/05/19 06:06:05;;;;;;;13.13;10.57;;;;;;;18.38;82.76;101559.72;4975666;28;20046;-74
2022/05/19 06:08:32;;;;;;;14.00;12.20;;;;;;;18.34;84.30;101568.25;4993140;28;20034;-69
2022/05/19 06:10:59;;;;;;;16.85;12.90;;;;;;;18.37;84.90;101580.84;4988752;28;20042;-68
2022/05/19 06:13:25;;;;;;;17.80;12.20;;;;;;;18.42;83.30;101584.09;4988597;28;20038;-72
2022/05/19 06:15:51;;;;;;;14.55;11.90;;;;;;;18.46;82.89;101576.38;4993169;28;20985;-68
2022/05/19 06:18:17;;;;;;;14.88;11.75;;;;;;;18.54;83.44;101591.19;4991477;28;20037;-68
2022/05/19 06:20:44;;;;;;;15.50;11.45;;;;;;;18.66;83.43;101599.31;4978047;28;20118;-69
2022/05/19 06:23:11;;;;;;;15.48;12.90;;;;;;;18.79;83.84;101588.88;4984861;28;20086;-69
2022/05/19 06:25:36;;;;;;;21.23;11.90;;;;;;;18.92;81.91;101586.69;4992873;28;20081;-73
2022/05/19 06:28:01;;;;;;;13.57;11.82;;;;;;;19.02;82.94;101583.91;4983913;28;20442;-69
2022/05/19 06:30:29;;;;;;;17.00;12.48;;;;;;;19.14;81.55;101588.25;4989480;28;20026;-72
2022/05/19 06:32:55;;;;;;;19.90;13.25;;;;;;;19.21;82.22;101585.75;4980424;28;20118;-72
2022/05/19 06:35:27;;;;;;;16.92;13.55;;;;;;;19.26;82.84;101584.31;4986605;28;20037;-73
2022/05/19 06:37:53;;;;;;;;;;;;;;;19.38;79.98;101576.69;4982814;28;20149;-68
2022/05/19 06:40:19;;;;;;;20.02;15.32;;;;;;;19.40;82.04;101577.44;4986174;28;20025;-68
2022/05/19 06:42:46;;;;;;;17.55;13.48;;;;;;;19.52;81.82;101586.38;4979089;28;20061;-69
2022/05/19 06:45:14;;;;;;;20.05;16.20;;;;;;;19.62;81.52;101585.34;4981258;28;20035;-72
2022/05/19 06:47:40;;;;;;;18.85;14.98;;;;;;;19.69;81.05;101582.00;4981141;28;20034;-68
2022/05/19 06:50:08;;;;;;;16.55;14.65;;;;;;;19.73;80.84;101576.03;4986769;28;20035;-74
2022/05/19 06:52:42;;;;;;;17.88;16.05;;;;;;;19.81;80.64;101573.34;4976330;28;20039;-73
2022/05/19 06:55:09;;;;;;;22.05;16.17;;;;;;;19.79;81.40;101555.22;4971619;28;20442;-74
2022/05/19 06:57:35;;;;;;;21.02;16.20;;;;;;;19.77;80.45;101543.44;4974453;28;20413;-68
2022/05/19 07:00:01;;;;;;;17.42;14.50;;;;;;;19.88;80.43;101570.84;4982845;28;20050;-68
2022/05/19 07:02:26;;;;;;;18.55;16.52;;;;;;;19.94;80.59;101570.22;4978036;28;20451;-73
2022/05/19 07:04:52;;;;;;;19.45;16.95;;;;;;;19.95;80.63;101565.56;4973781;28;20035;-75
2022/05/19 07:07:17;;;;;;;19.60;17.08;;;;;;;20.00;80.72;101571.50;4982571;28;20048;-75
2022/05/19 07:09:44;;;;;;;23.20;18.45;;;;;;;20.06;81.24;101562.59;4991666;28;20041;-67
2022/05/19 07:12:11;;;;;;;23.33;18.63;;;;;;;20.10;79.85;101561.28;4987390;28;20520;-75
2022/05/19 07:14:37;;;;;;;21.60;18.90;;;;;;;20.09;78.90;101559.50;4985445;28;20018;-68
2022/05/19 07:17:05;;;;;;;23.20;17.55;;;;;;;20.19;78.81;101553.91;4972299;28;20042;-72
2022/05/19 07:22:18;;;;;;;23.05;18.35;;;;;;;20.31;78.23;101539.72;4972714;28;20463;-74
2022/05/19 07:24:43;;;;;;;22.58;17.58;;;;;;;20.32;78.93;101541.44;4972707;28;20038;-74
2022/05/19 07:27:09;;;;;;;22.25;17.95;;;;;;;20.36;79.47;101544.78;4971885;28;20502;-67
2022/05/19 07:29:34;;;;;;;22.45;18.10;;;;;;;20.45;77.17;101545.72;4981081;28;20030;-68
2022/05/19 07:32:03;;;;;;;25.63;17.75;;;;;;;20.53;76.27;101540.31;4990420;28;20034;-68
2022/05/19 07:34:31;;;;;;;24.33;18.17;;;;;;;20.64;75.84;101543.69;4988961;28;20931;-73
2022/05/19 07:36:57;;;;;;;21.00;17.23;;;;;;;20.78;76.43;101538.63;4986050;28;20110;-68
2022/05/19 07:39:24;;;;;;;18.65;16.30;;;;;;;20.88;77.10;101533.84;4973064;28;20039;-67
2022/05/19 07:41:55;;;;;;;17.92;15.30;;;;;;;21.14;76.15;101553.22;4985360;28;20076;-71
2022/05/19 07:44:21;;;;;;;17.58;13.82;;;;;;;21.31;74.83;101566.19;4969489;28;20035;-67
2022/05/19 07:46:47;;;;;;;19.52;14.77;;;;;;;21.37;74.45;101556.34;4986349;28;20101;-68
2022/05/19 07:49:12;;;;;;;19.25;15.10;;;;;;;21.51;75.04;101571.47;4985443;28;20409;-72
2022/05/19 07:51:40;;;;;;;16.40;14.55;;;;;;;21.71;73.72;101566.56;4987679;28;20045;-67
2022/05/19 07:54:17;;;;;;;18.33;14.93;;;;;;;21.93;73.47;101571.50;4987161;28;20030;-67
2022/05/19 07:56:44;;;;;;;19.58;14.85;;;;;;;22.05;72.98;101569.28;4990088;28;20498;-68
2022/05/19 07:59:11;;;;;;;21.33;15.35;;;;;;;22.38;72.23;101568.38;4984284;28;20030;-68
2022/05/19 08:01:37;;;;;;;16.08;14.30;;;;;;;22.92;71.47;101567.91;4985797;28;20071;-68
2022/05/19 08:04:03;;;;;;;20.77;14.55;;;;;;;23.31;69.41;101565.22;4977476;28;20089;-73
2022/05/19 08:06:29;;;;;;;18.05;15.90;;;;;;;23.30;66.71;101557.09;4978620;28;20097;-68
2022/05/19 08:08:58;;;;;;;20.27;14.98;;;;;;;23.65;67.32;101551.13;4980857;28;20517;-73
2022/05/19 08:11:23;;;;;;;21.88;15.30;;;;;;;24.31;67.44;101546.06;4971492;28;20041;-68
2022/05/19 08:16:33;;;;;;;18.88;14.63;;;;;;;25.60;61.47;101556.25;4986637;28;20497;-69
2022/05/19 08:18:58;;;;;;;18.33;13.45;;;;;;;25.90;60.92;101547.88;4970841;28;20065;-73
2022/05/19 08:21:24;;;;;;;19.33;12.90;;;;;;;26.21;60.19;101547.63;4975195;28;20053;-73
2022/05/19 08:23:52;;;;;;;17.83;12.80;;;;;;;26.44;59.69;101551.13;4972804;28;20037;-73
2022/05/19 08:26:19;;;;;;;17.63;11.30;;;;;;;26.34;56.69;101546.88;4971194;28;20151;-74
2022/05/19 08:28:45;;;;;;;13.75;11.15;;;;;;;26.57;58.60;101550.38;4970394;28;20030;-71
2022/05/19 08:31:20;;;;;;;15.63;11.23;;;;;;;26.98;58.49;101541.31;4970581;28;20034;-68
2022/05/19 08:33:47;;;;;;;14.90;11.68;;;;;;;26.89;55.08;101534.13;4969470;28;20514;-69
2022/05/19 08:36:13;;;;;;;13.10;11.40;;;;;;;27.03;56.74;101546.28;4971075;28;20073;-74
2022/05/19 08:38:40;;;;;;;15.50;11.35;;;;;;;27.26;53.70;101546.94;4970854;28;20079;-73
2022/05/19 08:41:14;;;;;;;13.82;10.23;;;;;;;27.50;56.38;101530.75;4970803;28;20487;-69
2022/05/19 08:43:52;;;;;;;15.23;11.00;;;;;;;27.58;54.75;101538.97;4976792;28;20074;-69
2022/05/19 08:46:35;;;;;;;15.43;10.30;;;;;;;27.59;53.77;101543.47;4971126;28;20048;-74
2022/05/19 08:49:15;;;;;;;12.48;8.65;;;;;;;27.77;53.98;101535.44;4970520;28;20049;-68
2022/05/19 08:51:56;;;;;;;11.20;7.90;;;;;;;27.89;53.50;101525.41;4983382;28;20042;-74
2022/05/19 08:54:24;;;;;;;12.93;8.80;;;;;;;27.51;51.37;101516.53;4974503;28;20049;-74
2022/05/19 08:57:01;;;;;;;10.02;7.45;;;;;;;27.81;52.11;101525.56;4989020;28;20046;-73
2022/05/19 08:59:57;;;;;;;9.93;7.28;;;;;;;27.91;52.08;101516.78;4982149;28;20035;-69
2022/05/19 09:02:39;;;;;;;9.35;6.75;;;;;;;28.12;50.75;101513.88;4974538;28;20042;-68
2022/05/19 09:05:42;;;;;;;9.02;7.20;;;;;;;28.35;52.27;101518.22;4974852;28;20117;-69
2022/05/19 09:08:13;;;;;;;11.43;7.10;;;;;;;28.35;49.33;101523.81;4989242;28;20034;-74
2022/05/19 09:10:47;;;;;;;12.00;6.63;;;;;;;28.63;49.07;101512.47;4987438;28;20042;-73
2022/05/19 09:13:16;;;;;;;9.30;7.00;;;;;;;28.88;48.32;101515.50;4982140;28;20035;-71
2022/05/19 09:15:44;;;;;;;9.32;6.78;;;;;;;28.96;47.63;101520.94;4987460;28;20058;-74
2022/05/19 09:18:14;;;;;;;10.38;6.60;;;;;;;29.17;50.47;101511.41;4981544;28;20030;-74
2022/05/19 09:20:51;;;;;;;11.38;6.65;;;;;;;29.21;47.56;101512.69;4974439;28;20033;-68
2022/05/19 09:23:17;;;;;;;9.20;6.70;;;;;;;29.29;47.15;101503.22;4974725;28;20034;-67
2022/05/19 09:26:09;;;;;;;14.75;6.50;;;;;;;29.37;49.00;101505.75;4974771;28;20155;-68
2022/05/19 09:28:35;;;;;;;13.18;7.10;;;;;;;29.29;47.17;101503.22;4969325;28;20047;-74
2022/05/19 09:31:00;;;;;;;12.07;6.30;;;;;;;29.19;47.21;101509.22;4974292;28;20117;-73
2022/05/19 09:33:34;;;;;;;10.32;6.55;;;;;;;29.07;48.47;101513.78;4973933;28;20084;-74
2022/05/19 09:36:00;;;;;;;13.98;6.95;;;;;;;28.94;46.89;101511.81;4973518;28;20039;-75
2022/05/19 09:38:37;;;;;;;11.75;7.22;;;;;;;28.92;49.68;101514.84;4973946;28;20114;-74
2022/05/19 09:41:04;;;;;;;9.10;6.55;;;;;;;28.75;46.30;101516.34;4973371;28;20482;-69
2022/05/19 09:43:33;;;;;;;15.45;7.15;;;;;;;28.63;48.53;101512.47;4972942;28;20058;-68
2022/05/19 09:46:09;;;;;;;11.95;6.75;;;;;;;28.53;49.17;101518.47;4974034;28;20034;-74
2022/05/19 09:48:41;;;;;;;8.07;6.85;;;;;;;28.40;48.92;101521.28;4975126;28;20297;-69
2022/05/19 09:51:13;;;;;;;10.73;6.60;;;;;;;28.36;48.33;101517.19;4973759;28;20390;-73
2022/05/19 09:53:46;;;;;;;;;;;;;;;28.46;51.10;101518.47;4974124;28;20101;-68
2022/05/19 09:56:15;;;;;;;9.35;6.68;;;;;;;28.28;48.93;101503.34;4975070;28;20000;-73
2022/05/19 09:58:45;;;;;;;15.50;6.65;;;;;;;28.31;52.57;101500.13;4985712;28;20061;-72
2022/05/19 10:01:28;;;;;;;9.68;5.95;;;;;;;28.43;51.74;101496.50;4989360;28;20043;-74
2022/05/19 10:04:02;;;;;;;10.07;6.47;;;;;;;28.38;49.79;101489.81;4988158;28;20034;-74
2022/05/19 10:06:39;;;;;;;15.00;6.65;;;;;;;28.42;50.70;101479.94;4991385;28;20061;-74
2022/05/19 10:09:13;;;;;;;9.73;7.13;;;;;;;28.41;48.56;101470.66;4991553;28;20038;-73
2022/05/19 10:11:52;;;;;;;11.68;6.32;;;;;;;28.64;50.18;101461.00;4981503;28;20034;-68
2022/05/19 10:14:25;;;;;;;12.73;5.75;;;;;;;28.88;49.67;101462.28;5009476;28;20074;-73
2022/05/19 10:17:09;;;;;;;8.45;5.82;;;;;;;29.19;48.45;101444.78;4992309;28;20049;-74
2022/05/19 10:20:02;;;;;;;20.40;6.15;;;;;;;29.41;48.50;101431.34;4981286;28;20085;-74
2022/05/19 10:22:37;;;;;;;7.43;5.13;;;;;;;29.64;46.89;101430.84;4981310;28;20040;-68
2022/05/19 10:25:05;;;;;;;11.75;5.40;;;;;;;30.04;47.39;101437.09;4989783;28;20034;-73
2022/05/19 10:31:07;;;;;;;8.48;4.47;;;;;;;30.20;46.23;101441.34;4985605;28;20503;-68
2022/05/19 10:33:49;;;;;;;11.32;4.95;;;;;;;30.19;45.53;101434.88;4966544;28;20050;-74
2022/05/19 10:36:22;;;;;;;7.72;4.25;;;;;;;30.41;44.71;101424.13;4990211;28;20030;-67
2022/05/19 10:39:01;;;;;;;6.70;4.07;;;;;;;30.71;44.42;101431.91;4975316;28;20519;-68
2022/05/19 10:41:58;;;;;;;7.68;3.83;;;;;;;30.81;43.51;101446.28;4973004;28;20038;-68
2022/05/19 10:45:02;;;;;;;6.75;4.30;;;;;;;30.73;41.95;101453.06;4973522;28;20055;-74
2022/05/19 10:47:36;;;;;;;6.93;4.00;;;;;;;30.59;43.36;101450.53;4972795;28;20510;-67
2022/05/19 10:50:08;;;;;;;6.72;4.32;;;;;;;30.27;38.29;101444.13;4972366;28;20066;-75
2022/05/19 10:53:22;;;;;;;6.63;4.10;;;;;;;30.31;42.71;101434.13;4977794;28;20042;-74
2022/05/19 10:56:06;;;;;;;10.98;3.85;;;;;;;30.28;42.13;101440.22;4979331;28;20056;-73
2022/05/19 10:58:53;;;;;;;7.18;3.97;;;;;;;30.10;42.59;101438.16;4977492;28;20053;-74
2022/05/19 11:01:27;;;;;;;6.30;4.13;;;;;;;29.99;41.22;101442.53;4972861;28;20046;-73
2022/05/19 11:04:13;;;;;;;8.68;3.83;;;;;;;30.12;44.13;101434.00;4972549;28;20043;-72
2022/05/19 11:07:08;;;;;;;6.15;3.92;;;;;;;30.07;42.26;101445.06;4979583;28;20034;-68
2022/05/19 11:09:47;;;;;;;7.80;4.40;;;;;;;29.70;42.74;101436.44;4987223;28;20038;-67
2022/05/19 11:12:18;;;;;;;5.93;4.10;;;;;;;29.61;44.03;101440.59;4986046;28;20052;-73
2022/05/19 11:14:51;;;;;;;8.07;5.25;;;;;;;29.36;42.18;101434.81;4992691;28;20039;-73
2022/05/19 11:17:38;;;;;;;5.63;3.85;;;;;;;29.11;46.50;101431.03;4990723;28;20394;-73
2022/05/19 11:20:19;;;;;;;5.40;3.67;;;;;;;28.77;46.93;101430.16;4986694;28;20330;-73
2022/05/19 11:22:48;;;;;;;13.18;4.80;;;;;;;28.60;48.82;101438.16;4983968;28;20522;-73
2022/05/19 11:28:14;;;;;;;9.35;4.30;;;;;;;28.12;48.27;101445.81;4977725;28;20042;-69
2022/05/19 11:30:45;;;;;;;6.30;3.88;;;;;;;27.92;51.14;101466.22;5009991;28;20037;-73
2022/05/19 11:33:17;;;;;;;7.43;4.55;;;;;;;27.68;51.17;101464.81;4986218;28;20517;-69
2022/05/19 11:35:51;;;;;;;15.18;4.93;;;;;;;27.52;51.65;101478.31;4978261;28;20100;-67
2022/05/19 11:38:36;;;;;;;9.82;5.15;;;;;;;27.31;53.12;101479.25;4990926;28;20034;-68